sensor_id;sensor_type;location;lat;lon;timestamp;P1;durP1;ratioP1;P2;durP2;ratioP2
36241;SDS011;22283;42.748;12.732;2022-08-21T00:03:01;6.40;;;2.50;;
36241;SDS011;22283;42.748;12.732;2022-08-21T00:08:05;4.03;;;1.85;;
36241;SDS011;22283;42.748;12.732;2022-08-21T00:13:06;3.83;;;1.92;;
36241;SDS011;22283;42.748;12.732;2022-08-21T00:18:09;7.22;;;2.50;;
36241;SDS011;22283;42.748;12.732;2022-08-21T00:23:11;5.10;;;1.60;;
36241;SDS011;22283;42.748;12.732;2022-08-21T00:28:12;9.75;;;2.78;;
36241;SDS011;22283;42.748;12.732;2022-08-21T00:33:13;7.50;;;2.30;;
36241;SDS011;22283;42.748;12.732;2022-08-21T00:38:14;6.20;;;2.10;;
36241;SDS011;22283;42.748;12.732;2022-08-21T00:43:17;4.30;;;2.20;;
36241;SDS011;22283;42.748;12.732;2022-08-21T00:48:20;7.90;;;1.98;;
36241;SDS011;22283;42.748;12.732;2022-08-21T00:53:22;14.77;;;2.05;;
36241;SDS011;22283;42.748;12.732;2022-08-21T00:58:24;4.57;;;2.20;;
36241;SDS011;22283;42.748;12.732;2022-08-21T01:03:28;6.93;;;2.08;;
36241;SDS011;22283;42.748;12.732;2022-08-21T01:08:29;2.78;;;1.95;;
36241;SDS011;22283;42.748;12.732;2022-08-21T01:13:32;7.70;;;2.53;;
36241;SDS011;22283;42.748;12.732;2022-08-21T01:18:36;8.38;;;2.30;;
36241;SDS011;22283;42.748;12.732;2022-08-21T01:23:38;4.95;;;1.80;;
36241;SDS011;22283;42.748;12.732;2022-08-21T01:29:02;5.18;;;2.28;;
36241;SDS011;22283;42.748;12.732;2022-08-21T01:34:04;4.72;;;2.10;;
36241;SDS011;22283;42.748;12.732;2022-08-21T01:39:05;3.67;;;1.70;;
36241;SDS011;22283;42.748;12.732;2022-08-21T01:44:06;4.50;;;1.95;;
36241;SDS011;22283;42.748;12.732;2022-08-21T01:49:07;10.07;;;1.95;;
36241;SDS011;22283;42.748;12.732;2022-08-21T01:54:08;7.30;;;2.08;;
36241;SDS011;22283;42.748;12.732;2022-08-21T01:59:09;4.72;;;1.90;;
36241;SDS011;22283;42.748;12.732;2022-08-21T02:04:10;4.90;;;2.80;;
36241;SDS011;22283;42.748;12.732;2022-08-21T02:09:12;4.78;;;2.13;;
36241;SDS011;22283;42.748;12.732;2022-08-21T02:14:14;8.95;;;2.10;;
36241;SDS011;22283;42.748;12.732;2022-08-21T02:19:15;10.82;;;2.65;;
36241;SDS011;22283;42.748;12.732;2022-08-21T02:24:16;10.20;;;2.65;;
36241;SDS011;22283;42.748;12.732;2022-08-21T02:29:17;5.03;;;2.20;;
36241;SDS011;22283;42.748;12.732;2022-08-21T02:34:18;4.53;;;2.40;;
36241;SDS011;22283;42.748;12.732;2022-08-21T02:39:19;4.97;;;2.38;;
36241;SDS011;22283;42.748;12.732;2022-08-21T02:44:19;7.27;;;2.60;;
36241;SDS011;22283;42.748;12.732;2022-08-21T02:49:20;8.83;;;2.27;;
36241;SDS011;22283;42.748;12.732;2022-08-21T02:54:20;5.43;;;2.87;;
36241;SDS011;22283;42.748;12.732;2022-08-21T02:59:21;7.30;;;2.63;;
36241;SDS011;22283;42.748;12.732;2022-08-21T03:04:22;6.90;;;3.03;;
36241;SDS011;22283;42.748;12.732;2022-08-21T03:09:23;6.10;;;2.33;;
36241;SDS011;22283;42.748;12.732;2022-08-21T03:19:24;6.97;;;2.97;;
36241;SDS011;22283;42.748;12.732;2022-08-21T03:24:25;5.00;;;1.73;;
36241;SDS011;22283;42.748;12.732;2022-08-21T03:29:26;7.13;;;2.83;;
36241;SDS011;22283;42.748;12.732;2022-08-21T03:34:27;9.70;;;2.60;;
36241;SDS011;22283;42.748;12.732;2022-08-21T03:39:28;3.72;;;2.42;;
36241;SDS011;22283;42.748;12.732;2022-08-21T03:44:28;12.03;;;2.53;;
36241;SDS011;22283;42.748;12.732;2022-08-21T03:49:30;4.20;;;2.25;;
36241;SDS011;22283;42.748;12.732;2022-08-21T03:54:31;4.72;;;2.22;;
36241;SDS011;22283;42.748;12.732;2022-08-21T03:59:31;6.45;;;2.17;;
36241;SDS011;22283;42.748;12.732;2022-08-21T04:04:33;5.90;;;2.53;;
36241;SDS011;22283;42.748;12.732;2022-08-21T04:09:34;6.63;;;2.38;;
36241;SDS011;22283;42.748;12.732;2022-08-21T04:14:35;5.05;;;2.65;;
36241;SDS011;22283;42.748;12.732;2022-08-21T04:19:36;6.83;;;2.60;;
36241;SDS011;22283;42.748;12.732;2022-08-21T04:24:37;12.27;;;3.35;;
36241;SDS011;22283;42.748;12.732;2022-08-21T04:29:37;11.95;;;3.13;;
36241;SDS011;22283;42.748;12.732;2022-08-21T04:34:38;4.65;;;2.35;;
36241;SDS011;22283;42.748;12.732;2022-08-21T04:39:39;10.80;;;2.87;;
36241;SDS011;22283;42.748;12.732;2022-08-21T04:44:39;6.90;;;2.60;;
36241;SDS011;22283;42.748;12.732;2022-08-21T04:49:41;13.90;;;2.97;;
36241;SDS011;22283;42.748;12.732;2022-08-21T04:54:42;6.93;;;2.67;;
36241;SDS011;22283;42.748;12.732;2022-08-21T04:59:47;6.85;;;2.50;;
36241;SDS011;22283;42.748;12.732;2022-08-21T05:04:51;5.07;;;2.65;;
36241;SDS011;22283;42.748;12.732;2022-08-21T05:09:54;7.35;;;2.20;;
36241;SDS011;22283;42.748;12.732;2022-08-21T05:14:55;7.65;;;2.15;;
36241;SDS011;22283;42.748;12.732;2022-08-21T05:19:55;4.53;;;2.13;;
36241;SDS011;22283;42.748;12.732;2022-08-21T05:24:57;7.03;;;2.17;;
36241;SDS011;22283;42.748;12.732;2022-08-21T05:29:57;9.25;;;2.60;;
36241;SDS011;22283;42.748;12.732;2022-08-21T05:34:59;7.63;;;2.25;;
36241;SDS011;22283;42.748;12.732;2022-08-21T05:39:59;7.85;;;2.30;;
36241;SDS011;22283;42.748;12.732;2022-08-21T05:45:01;7.43;;;2.00;;
36241;SDS011;22283;42.748;12.732;2022-08-21T05:55:03;8.80;;;2.07;;
36241;SDS011;22283;42.748;12.732;2022-08-21T06:00:05;3.63;;;1.80;;
36241;SDS011;22283;42.748;12.732;2022-08-21T06:05:13;7.75;;;2.05;;
36241;SDS011;22283;42.748;12.732;2022-08-21T06:10:13;11.93;;;2.10;;
36241;SDS011;22283;42.748;12.732;2022-08-21T06:15:14;7.93;;;2.22;;
36241;SDS011;22283;42.748;12.732;2022-08-21T06:20:15;8.30;;;1.92;;
36241;SDS011;22283;42.748;12.732;2022-08-21T06:25:16;5.80;;;1.88;;
36241;SDS011;22283;42.748;12.732;2022-08-21T06:30:17;4.18;;;2.25;;
36241;SDS011;22283;42.748;12.732;2022-08-21T06:35:18;6.97;;;1.83;;
36241;SDS011;22283;42.748;12.732;2022-08-21T06:40:19;6.28;;;1.80;;
36241;SDS011;22283;42.748;12.732;2022-08-21T06:45:20;4.82;;;2.10;;
36241;SDS011;22283;42.748;12.732;2022-08-21T06:50:22;4.25;;;1.80;;
36241;SDS011;22283;42.748;12.732;2022-08-21T06:55:22;6.00;;;1.90;;
36241;SDS011;22283;42.748;12.732;2022-08-21T07:00:23;8.00;;;2.10;;
36241;SDS011;22283;42.748;12.732;2022-08-21T07:05:25;6.65;;;1.75;;
36241;SDS011;22283;42.748;12.732;2022-08-21T07:10:27;5.25;;;1.75;;
36241;SDS011;22283;42.748;12.732;2022-08-21T07:15:28;4.13;;;1.85;;
36241;SDS011;22283;42.748;12.732;2022-08-21T07:20:30;8.68;;;2.05;;
36241;SDS011;22283;42.748;12.732;2022-08-21T07:25:31;5.93;;;2.28;;
36241;SDS011;22283;42.748;12.732;2022-08-21T07:30:32;7.90;;;2.85;;
36241;SDS011;22283;42.748;12.732;2022-08-21T07:35:33;11.30;;;2.17;;
36241;SDS011;22283;42.748;12.732;2022-08-21T07:40:33;5.78;;;2.15;;
36241;SDS011;22283;42.748;12.732;2022-08-21T07:45:34;7.32;;;2.08;;
36241;SDS011;22283;42.748;12.732;2022-08-21T07:50:35;4.93;;;1.88;;
36241;SDS011;22283;42.748;12.732;2022-08-21T07:55:36;6.57;;;2.95;;
36241;SDS011;22283;42.748;12.732;2022-08-21T08:00:37;4.47;;;1.77;;
36241;SDS011;22283;42.748;12.732;2022-08-21T08:05:37;5.25;;;1.90;;
36241;SDS011;22283;42.748;12.732;2022-08-21T08:10:39;8.38;;;2.30;;
36241;SDS011;22283;42.748;12.732;2022-08-21T08:15:40;7.75;;;2.17;;
36241;SDS011;22283;42.748;12.732;2022-08-21T08:20:40;7.75;;;2.45;;
36241;SDS011;22283;42.748;12.732;2022-08-21T08:25:41;4.80;;;2.00;;
36241;SDS011;22283;42.748;12.732;2022-08-21T08:30:42;6.75;;;1.60;;
36241;SDS011;22283;42.748;12.732;2022-08-21T08:35:44;4.93;;;2.50;;
36241;SDS011;22283;42.748;12.732;2022-08-21T08:46:01;6.82;;;2.47;;
36241;SDS011;22283;42.748;12.732;2022-08-21T08:51:05;9.38;;;2.55;;
36241;SDS011;22283;42.748;12.732;2022-08-21T08:56:09;5.70;;;1.85;;
36241;SDS011;22283;42.748;12.732;2022-08-21T09:01:13;8.05;;;2.90;;
36241;SDS011;22283;42.748;12.732;2022-08-21T09:06:25;6.60;;;2.72;;
36241;SDS011;22283;42.748;12.732;2022-08-21T09:17:19;5.65;;;1.90;;
36241;SDS011;22283;42.748;12.732;2022-08-21T09:27:42;7.97;;;2.20;;
36241;SDS011;22283;42.748;12.732;2022-08-21T09:32:43;3.42;;;1.88;;
36241;SDS011;22283;42.748;12.732;2022-08-21T09:43:20;8.13;;;2.00;;
36241;SDS011;22283;42.748;12.732;2022-08-21T09:48:23;8.98;;;1.90;;
36241;SDS011;22283;42.748;12.732;2022-08-21T09:53:26;7.32;;;2.00;;
36241;SDS011;22283;42.748;12.732;2022-08-21T09:58:31;5.47;;;1.77;;
36241;SDS011;22283;42.748;12.732;2022-08-21T10:03:34;3.22;;;1.70;;
36241;SDS011;22283;42.748;12.732;2022-08-21T10:08:35;4.97;;;1.80;;
36241;SDS011;22283;42.748;12.732;2022-08-21T10:56:29;2.65;;;1.27;;
36241;SDS011;22283;42.748;12.732;2022-08-21T11:01:34;3.55;;;1.50;;
36241;SDS011;22283;42.748;12.732;2022-08-21T11:06:38;4.00;;;1.85;;
36241;SDS011;22283;42.748;12.732;2022-08-21T11:11:52;5.75;;;1.75;;
36241;SDS011;22283;42.748;12.732;2022-08-21T11:17:05;2.10;;;1.33;;
36241;SDS011;22283;42.748;12.732;2022-08-21T11:33:20;4.32;;;1.27;;
36241;SDS011;22283;42.748;12.732;2022-08-21T11:43:33;3.83;;;1.30;;
36241;SDS011;22283;42.748;12.732;2022-08-21T11:48:43;4.57;;;1.85;;
36241;SDS011;22283;42.748;12.732;2022-08-21T11:54:07;3.80;;;1.52;;
36241;SDS011;22283;42.748;12.732;2022-08-21T11:59:26;3.70;;;1.90;;
36241;SDS011;22283;42.748;12.732;2022-08-21T12:04:46;2.33;;;1.30;;
36241;SDS011;22283;42.748;12.732;2022-08-21T12:09:53;4.82;;;1.45;;
36241;SDS011;22283;42.748;12.732;2022-08-21T12:25:21;3.55;;;1.40;;
36241;SDS011;22283;42.748;12.732;2022-08-21T12:30:32;8.82;;;1.48;;
36241;SDS011;22283;42.748;12.732;2022-08-21T12:35:40;5.40;;;1.90;;
36241;SDS011;22283;42.748;12.732;2022-08-21T12:40:47;2.75;;;1.30;;
36241;SDS011;22283;42.748;12.732;2022-08-21T12:45:57;4.47;;;1.40;;
36241;SDS011;22283;42.748;12.732;2022-08-21T12:51:14;1.98;;;1.13;;
36241;SDS011;22283;42.748;12.732;2022-08-21T12:56:20;2.90;;;1.33;;
36241;SDS011;22283;42.748;12.732;2022-08-21T13:02:08;3.22;;;1.45;;
36241;SDS011;22283;42.748;12.732;2022-08-21T13:06:50;3.25;;;1.33;;
36241;SDS011;22283;42.748;12.732;2022-08-21T13:11:54;3.60;;;1.40;;
36241;SDS011;22283;42.748;12.732;2022-08-21T13:16:56;5.88;;;1.23;;
36241;SDS011;22283;42.748;12.732;2022-08-21T13:21:58;3.15;;;1.60;;
36241;SDS011;22283;42.748;12.732;2022-08-21T13:26:59;5.40;;;1.30;;
36241;SDS011;22283;42.748;12.732;2022-08-21T13:32:01;2.40;;;1.08;;
36241;SDS011;22283;42.748;12.732;2022-08-21T13:37:04;3.45;;;1.27;;
36241;SDS011;22283;42.748;12.732;2022-08-21T13:42:09;1.95;;;1.25;;
36241;SDS011;22283;42.748;12.732;2022-08-21T13:47:12;2.15;;;1.20;;
36241;SDS011;22283;42.748;12.732;2022-08-21T13:52:16;1.77;;;1.38;;
36241;SDS011;22283;42.748;12.732;2022-08-21T13:57:27;2.63;;;1.70;;
36241;SDS011;22283;42.748;12.732;2022-08-21T14:02:37;3.22;;;1.48;;
36241;SDS011;22283;42.748;12.732;2022-08-21T14:07:40;2.38;;;1.23;;
36241;SDS011;22283;42.748;12.732;2022-08-21T14:13:01;3.88;;;1.40;;
36241;SDS011;22283;42.748;12.732;2022-08-21T14:18:15;2.38;;;1.40;;
36241;SDS011;22283;42.748;12.732;2022-08-21T14:23:25;2.40;;;1.30;;
36241;SDS011;22283;42.748;12.732;2022-08-21T14:28:29;7.65;;;2.05;;
36241;SDS011;22283;42.748;12.732;2022-08-21T14:33:32;2.70;;;1.17;;
36241;SDS011;22283;42.748;12.732;2022-08-21T14:38:35;5.82;;;1.50;;
36241;SDS011;22283;42.748;12.732;2022-08-21T14:43:38;3.97;;;1.55;;
36241;SDS011;22283;42.748;12.732;2022-08-21T14:48:39;3.42;;;1.42;;
36241;SDS011;22283;42.748;12.732;2022-08-21T14:53:40;3.25;;;1.45;;
36241;SDS011;22283;42.748;12.732;2022-08-21T14:58:43;2.30;;;1.30;;
36241;SDS011;22283;42.748;12.732;2022-08-21T15:03:46;3.88;;;1.65;;
36241;SDS011;22283;42.748;12.732;2022-08-21T15:08:48;7.25;;;1.65;;
36241;SDS011;22283;42.748;12.732;2022-08-21T15:13:51;4.68;;;1.05;;
36241;SDS011;22283;42.748;12.732;2022-08-21T15:18:55;3.75;;;1.33;;
36241;SDS011;22283;42.748;12.732;2022-08-21T15:23:56;2.30;;;1.15;;
36241;SDS011;22283;42.748;12.732;2022-08-21T15:28:58;3.17;;;1.35;;
36241;SDS011;22283;42.748;12.732;2022-08-21T15:33:59;3.78;;;1.92;;
36241;SDS011;22283;42.748;12.732;2022-08-21T15:39:00;5.70;;;1.70;;
36241;SDS011;22283;42.748;12.732;2022-08-21T15:44:01;3.17;;;1.45;;
36241;SDS011;22283;42.748;12.732;2022-08-21T15:49:02;5.32;;;1.40;;
36241;SDS011;22283;42.748;12.732;2022-08-21T15:54:03;5.18;;;1.35;;
36241;SDS011;22283;42.748;12.732;2022-08-21T15:59:05;2.90;;;1.20;;
36241;SDS011;22283;42.748;12.732;2022-08-21T16:04:09;3.55;;;1.40;;
36241;SDS011;22283;42.748;12.732;2022-08-21T16:09:10;6.25;;;1.63;;
36241;SDS011;22283;42.748;12.732;2022-08-21T16:14:12;3.22;;;1.20;;
36241;SDS011;22283;42.748;12.732;2022-08-21T16:19:15;3.03;;;1.10;;
36241;SDS011;22283;42.748;12.732;2022-08-21T16:24:16;3.00;;;1.20;;
36241;SDS011;22283;42.748;12.732;2022-08-21T16:29:17;3.47;;;1.52;;
36241;SDS011;22283;42.748;12.732;2022-08-21T16:34:18;3.85;;;1.60;;
36241;SDS011;22283;42.748;12.732;2022-08-21T16:39:20;7.07;;;2.30;;
36241;SDS011;22283;42.748;12.732;2022-08-21T16:44:21;2.88;;;1.45;;
36241;SDS011;22283;42.748;12.732;2022-08-21T16:49:22;3.80;;;1.30;;
36241;SDS011;22283;42.748;12.732;2022-08-21T16:54:23;3.63;;;1.42;;
36241;SDS011;22283;42.748;12.732;2022-08-21T16:59:24;4.40;;;1.20;;
36241;SDS011;22283;42.748;12.732;2022-08-21T17:04:26;4.93;;;1.30;;
36241;SDS011;22283;42.748;12.732;2022-08-21T17:09:28;2.15;;;0.93;;
36241;SDS011;22283;42.748;12.732;2022-08-21T17:14:28;2.55;;;1.15;;
36241;SDS011;22283;42.748;12.732;2022-08-21T17:19:29;1.92;;;1.02;;
36241;SDS011;22283;42.748;12.732;2022-08-21T17:24:30;1.55;;;0.85;;
36241;SDS011;22283;42.748;12.732;2022-08-21T17:29:32;1.98;;;1.15;;
36241;SDS011;22283;42.748;12.732;2022-08-21T17:34:36;4.55;;;1.60;;
36241;SDS011;22283;42.748;12.732;2022-08-21T17:39:38;9.10;;;1.67;;
36241;SDS011;22283;42.748;12.732;2022-08-21T17:44:40;5.70;;;2.20;;
36241;SDS011;22283;42.748;12.732;2022-08-21T17:49:42;3.17;;;1.60;;
36241;SDS011;22283;42.748;12.732;2022-08-21T17:54:43;2.83;;;1.50;;
36241;SDS011;22283;42.748;12.732;2022-08-21T17:59:43;4.50;;;1.45;;
36241;SDS011;22283;42.748;12.732;2022-08-21T18:04:45;2.13;;;1.20;;
36241;SDS011;22283;42.748;12.732;2022-08-21T18:09:45;5.25;;;1.65;;
36241;SDS011;22283;42.748;12.732;2022-08-21T18:14:46;4.32;;;1.95;;
36241;SDS011;22283;42.748;12.732;2022-08-21T18:19:49;4.28;;;1.40;;
36241;SDS011;22283;42.748;12.732;2022-08-21T18:24:50;11.05;;;2.42;;
36241;SDS011;22283;42.748;12.732;2022-08-21T18:29:52;8.15;;;3.28;;
36241;SDS011;22283;42.748;12.732;2022-08-21T18:34:56;4.82;;;2.17;;
36241;SDS011;22283;42.748;12.732;2022-08-21T18:39:58;3.20;;;2.13;;
36241;SDS011;22283;42.748;12.732;2022-08-21T18:45:00;2.35;;;1.42;;
36241;SDS011;22283;42.748;12.732;2022-08-21T18:50:04;5.38;;;1.40;;
36241;SDS011;22283;42.748;12.732;2022-08-21T18:55:06;7.07;;;1.58;;
36241;SDS011;22283;42.748;12.732;2022-08-21T19:00:10;6.03;;;2.00;;
36241;SDS011;22283;42.748;12.732;2022-08-21T19:05:16;11.98;;;2.47;;
36241;SDS011;22283;42.748;12.732;2022-08-21T19:10:18;6.97;;;2.30;;
36241;SDS011;22283;42.748;12.732;2022-08-21T19:15:19;9.77;;;2.10;;
36241;SDS011;22283;42.748;12.732;2022-08-21T19:20:23;10.88;;;2.17;;
36241;SDS011;22283;42.748;12.732;2022-08-21T19:25:27;6.53;;;1.63;;
36241;SDS011;22283;42.748;12.732;2022-08-21T19:30:28;2.70;;;1.40;;
36241;SDS011;22283;42.748;12.732;2022-08-21T19:35:30;9.02;;;1.80;;
36241;SDS011;22283;42.748;12.732;2022-08-21T19:40:30;6.50;;;1.90;;
36241;SDS011;22283;42.748;12.732;2022-08-21T19:45:32;13.60;;;2.28;;
36241;SDS011;22283;42.748;12.732;2022-08-21T19:50:35;7.10;;;1.52;;
36241;SDS011;22283;42.748;12.732;2022-08-21T19:55:36;10.65;;;2.58;;
36241;SDS011;22283;42.748;12.732;2022-08-21T20:00:37;5.80;;;2.13;;
36241;SDS011;22283;42.748;12.732;2022-08-21T20:05:37;13.27;;;1.95;;
36241;SDS011;22283;42.748;12.732;2022-08-21T20:10:40;3.75;;;1.67;;
36241;SDS011;22283;42.748;12.732;2022-08-21T20:15:41;3.85;;;1.88;;
36241;SDS011;22283;42.748;12.732;2022-08-21T20:20:43;2.05;;;1.42;;
36241;SDS011;22283;42.748;12.732;2022-08-21T20:25:45;3.30;;;1.15;;
36241;SDS011;22283;42.748;12.732;2022-08-21T20:30:46;6.47;;;1.80;;
36241;SDS011;22283;42.748;12.732;2022-08-21T20:35:47;3.40;;;1.35;;
36241;SDS011;22283;42.748;12.732;2022-08-21T20:40:49;5.18;;;1.70;;
36241;SDS011;22283;42.748;12.732;2022-08-21T20:45:52;5.78;;;2.17;;
36241;SDS011;22283;42.748;12.732;2022-08-21T20:50:58;6.18;;;1.52;;
36241;SDS011;22283;42.748;12.732;2022-08-21T20:56:08;6.07;;;1.40;;
36241;SDS011;22283;42.748;12.732;2022-08-21T21:01:14;3.22;;;1.58;;
36241;SDS011;22283;42.748;12.732;2022-08-21T21:06:18;7.25;;;2.08;;
36241;SDS011;22283;42.748;12.732;2022-08-21T21:11:25;8.57;;;1.75;;
36241;SDS011;22283;42.748;12.732;2022-08-21T21:21:59;6.20;;;1.52;;
36241;SDS011;22283;42.748;12.732;2022-08-21T21:27:12;3.78;;;1.45;;
36241;SDS011;22283;42.748;12.732;2022-08-21T21:32:19;2.90;;;1.50;;
36241;SDS011;22283;42.748;12.732;2022-08-21T21:37:26;2.63;;;1.52;;
36241;SDS011;22283;42.748;12.732;2022-08-21T21:43:01;2.97;;;1.70;;
36241;SDS011;22283;42.748;12.732;2022-08-21T21:48:20;3.08;;;1.50;;
36241;SDS011;22283;42.748;12.732;2022-08-21T21:53:53;3.88;;;1.20;;
36241;SDS011;22283;42.748;12.732;2022-08-21T22:14:39;3.33;;;1.48;;
36241;SDS011;22283;42.748;12.732;2022-08-21T22:19:41;8.27;;;1.65;;
36241;SDS011;22283;42.748;12.732;2022-08-21T22:24:45;5.22;;;1.15;;
36241;SDS011;22283;42.748;12.732;2022-08-21T22:29:53;3.47;;;1.60;;
36241;SDS011;22283;42.748;12.732;2022-08-21T22:40:28;4.60;;;1.23;;
36241;SDS011;22283;42.748;12.732;2022-08-21T22:45:32;4.45;;;1.20;;
36241;SDS011;22283;42.748;12.732;2022-08-21T22:51:02;3.15;;;1.30;;
36241;SDS011;22283;42.748;12.732;2022-08-21T22:56:11;3.05;;;1.30;;
36241;SDS011;22283;42.748;12.732;2022-08-21T23:01:30;1.50;;;1.00;;
36241;SDS011;22283;42.748;12.732;2022-08-21T23:06:41;2.95;;;1.17;;
36241;SDS011;22283;42.748;12.732;2022-08-21T23:11:45;4.80;;;1.50;;
36241;SDS011;22283;42.748;12.732;2022-08-21T23:17:07;4.20;;;1.10;;
36241;SDS011;22283;42.748;12.732;2022-08-21T23:27:26;2.30;;;1.15;;
36241;SDS011;22283;42.748;12.732;2022-08-21T23:38:02;3.05;;;1.00;;
